createdAt,value
2023-04-16T00:09:33.622Z,4.77
2023-04-16T00:34:49.652Z,2.73
2023-04-16T00:39:45.807Z,2.40
2023-04-16T00:44:37.541Z,2.23
2023-04-16T00:49:32.274Z,1.80
2023-04-16T00:54:26.153Z,1.60
2023-04-16T00:59:21.195Z,2.20
2023-04-16T01:04:16.990Z,3.03
2023-04-16T01:09:11.633Z,1.70
2023-04-16T01:14:16.476Z,1.93
2023-04-16T01:19:08.515Z,1.73
2023-04-16T01:24:04.924Z,2.13
2023-04-16T01:29:00.599Z,2.13
2023-04-16T01:33:52.321Z,3.40
2023-04-16T01:38:44.001Z,2.00
2023-04-16T01:43:40.584Z,2.70
2023-04-16T01:48:33.109Z,2.00
2023-04-16T01:58:32.500Z,3.40
2023-04-16T02:03:24.883Z,1.97
2023-04-16T02:08:17.082Z,2.50
2023-04-16T02:13:08.736Z,2.20
2023-04-16T02:23:06.575Z,2.40
2023-04-16T02:27:58.282Z,2.33
2023-04-16T02:32:50.099Z,2.20
2023-04-16T02:37:41.826Z,2.37
2023-04-16T02:42:36.854Z,3.40
2023-04-16T02:47:28.573Z,3.77
2023-04-16T02:52:20.269Z,4.07
2023-04-16T02:57:11.932Z,4.63
2023-04-16T03:02:03.791Z,3.53
2023-04-16T03:06:55.619Z,4.03
2023-04-16T03:11:47.278Z,3.77
2023-04-16T03:16:38.938Z,2.63
2023-04-16T03:21:31.097Z,3.77
2023-04-16T03:26:22.785Z,3.37
2023-04-16T03:31:14.548Z,2.63
2023-04-16T03:36:07.653Z,4.47
2023-04-16T03:40:59.350Z,3.33
2023-04-16T03:45:51.271Z,5.07
2023-04-16T03:50:49.634Z,4.23
2023-04-16T03:55:42.112Z,3.30
2023-04-16T04:00:34.100Z,3.20
2023-04-16T04:05:27.652Z,3.33
2023-04-16T04:10:19.344Z,2.80
2023-04-16T04:15:11.698Z,3.63
2023-04-16T04:20:03.747Z,3.30
2023-04-16T04:24:55.530Z,3.67
2023-04-16T04:29:47.181Z,2.43
2023-04-16T04:34:38.887Z,4.00
2023-04-16T04:39:30.600Z,3.97
2023-04-16T04:44:22.262Z,3.73
2023-04-16T04:49:13.921Z,3.70
2023-04-16T04:54:05.785Z,6.17
2023-04-16T04:58:57.456Z,4.00
2023-04-16T05:03:49.665Z,4.03
2023-04-16T05:08:41.391Z,3.87
2023-04-16T05:13:33.060Z,5.30
2023-04-16T05:18:24.862Z,3.80
2023-04-16T05:23:16.665Z,4.70
2023-04-16T05:28:08.403Z,5.67
2023-04-16T05:33:00.250Z,3.90
2023-04-16T05:37:51.964Z,4.17
2023-04-16T05:42:43.657Z,4.00
2023-04-16T05:47:35.433Z,3.27
2023-04-16T05:52:27.133Z,2.97
2023-04-16T05:57:18.798Z,3.10
2023-04-16T06:02:11.233Z,3.27
2023-04-16T06:07:03.196Z,3.07
2023-04-16T06:11:55.325Z,2.47
2023-04-16T06:16:47.129Z,3.03
2023-04-16T06:21:40.135Z,2.37
2023-04-16T06:26:31.882Z,2.30
2023-04-16T06:31:25.454Z,1.90
2023-04-16T06:36:17.219Z,1.93
2023-04-16T06:41:09.065Z,1.40
2023-04-16T06:46:00.771Z,1.70
2023-04-16T06:50:52.457Z,1.40
2023-04-16T06:55:44.656Z,1.40
2023-04-16T07:00:36.375Z,1.93
2023-04-16T07:05:28.101Z,1.67
2023-04-16T07:10:19.774Z,1.20
2023-04-16T07:15:11.567Z,2.37
2023-04-16T07:20:03.842Z,1.67
2023-04-16T07:24:55.747Z,1.67
2023-04-16T07:29:47.954Z,1.50
2023-04-16T07:34:39.846Z,1.67
2023-04-16T07:39:31.621Z,2.30
2023-04-16T07:44:24.197Z,1.73
2023-04-16T07:49:18.179Z,2.50
2023-04-16T07:54:12.565Z,2.30
2023-04-16T07:59:14.855Z,2.20
2023-04-16T08:04:10.956Z,2.00
2023-04-16T08:09:02.947Z,2.27
2023-04-16T08:13:54.679Z,2.27
2023-04-16T08:18:46.480Z,1.43
2023-04-16T08:33:49.831Z,1.50
2023-04-16T08:38:43.579Z,1.33
2023-04-16T08:43:41.340Z,1.77
2023-04-16T08:48:36.780Z,2.80
2023-04-16T08:53:43.314Z,1.73
2023-04-16T08:58:37.118Z,1.60
2023-04-16T09:03:35.670Z,1.70
2023-04-16T09:08:29.519Z,2.53
2023-04-16T09:13:23.310Z,2.73
2023-04-16T09:18:14.994Z,3.20
2023-04-16T09:23:07.664Z,2.10
2023-04-16T09:28:01.424Z,2.23
2023-04-16T09:33:16.976Z,2.57
2023-04-16T09:38:08.691Z,2.90
2023-04-16T09:43:09.096Z,2.43
2023-04-16T09:48:13.106Z,2.20
2023-04-16T09:53:06.201Z,2.77
2023-04-16T09:58:02.278Z,2.10
2023-04-16T10:03:06.158Z,2.00
2023-04-16T10:08:02.004Z,2.47
2023-04-16T10:12:59.661Z,1.87
2023-04-16T10:28:11.137Z,2.37
2023-04-16T10:33:05.423Z,2.00
2023-04-16T10:37:57.879Z,1.70
2023-04-16T10:42:55.724Z,2.00
2023-04-16T10:47:47.492Z,1.70
2023-04-16T10:52:40.509Z,1.90
2023-04-16T10:57:32.184Z,1.53
2023-04-16T11:02:29.244Z,1.70
2023-04-16T11:07:41.571Z,2.33
2023-04-16T11:12:37.242Z,1.80
2023-04-16T11:17:44.775Z,2.07
2023-04-16T11:22:38.201Z,2.23
2023-04-16T11:27:31.597Z,2.10
2023-04-16T11:32:23.854Z,1.87
2023-04-16T11:37:20.979Z,2.50
2023-04-16T11:52:52.984Z,3.10
2023-04-16T11:57:45.828Z,3.00
2023-04-16T12:02:55.258Z,2.17
2023-04-16T12:07:48.327Z,2.60
2023-04-16T12:12:40.206Z,2.70
2023-04-16T12:17:35.522Z,2.23
2023-04-16T12:27:56.981Z,2.57
2023-04-16T12:32:52.342Z,2.73
2023-04-16T12:37:44.998Z,2.90
2023-04-16T12:42:38.056Z,2.83
2023-04-16T12:47:30.229Z,2.50
2023-04-16T12:52:23.718Z,2.50
2023-04-16T12:57:17.076Z,4.20
2023-04-16T13:02:17.603Z,3.10
2023-04-16T13:07:09.503Z,4.03
2023-04-16T13:12:03.721Z,4.57
2023-04-16T13:16:55.460Z,3.10
2023-04-16T13:21:47.331Z,5.87
2023-04-16T13:26:39.055Z,3.50
2023-04-16T13:31:30.949Z,4.70
2023-04-16T13:36:22.674Z,3.90
2023-04-16T13:41:14.358Z,4.37
2023-04-16T13:46:06.141Z,4.20
2023-04-16T13:50:57.809Z,4.80
2023-04-16T13:55:49.576Z,6.40
2023-04-16T14:00:42.971Z,5.90
2023-04-16T14:10:40.591Z,7.60
2023-04-16T14:15:32.532Z,9.73
2023-04-16T14:20:26.538Z,8.80
2023-04-16T14:25:18.409Z,9.03
2023-04-16T14:30:10.590Z,10.33
2023-04-16T14:35:02.523Z,11.27
2023-04-16T14:39:54.185Z,9.50
2023-04-16T14:49:59.316Z,11.63
2023-04-16T14:54:57.714Z,9.43
2023-04-16T14:59:50.402Z,9.93
2023-04-16T15:04:42.361Z,11.53
2023-04-16T15:09:37.674Z,10.63
2023-04-16T15:14:29.865Z,11.77
2023-04-16T15:24:27.784Z,11.37
2023-04-16T15:29:20.827Z,12.13
2023-04-16T15:34:14.059Z,10.77
2023-04-16T15:44:12.051Z,10.27
2023-04-16T15:49:04.156Z,11.40
2023-04-16T15:53:57.526Z,13.13
2023-04-16T15:58:50.189Z,11.90
2023-04-16T16:03:42.733Z,12.37
2023-04-16T16:08:36.048Z,13.20
2023-04-16T16:13:28.176Z,12.77
2023-04-16T16:18:24.022Z,12.37
2023-04-16T16:23:17.557Z,10.43
2023-04-16T16:28:09.548Z,11.13
2023-04-16T16:38:15.700Z,11.97
2023-04-16T16:48:29.192Z,9.67
2023-04-16T16:53:21.775Z,7.70
2023-04-16T16:58:14.623Z,9.23
2023-04-16T17:03:08.339Z,9.07
2023-04-16T17:08:02.121Z,8.63
2023-04-16T17:13:03.530Z,8.07
2023-04-16T17:23:04.171Z,7.97
2023-04-16T17:28:04.600Z,9.73
2023-04-16T17:32:57.947Z,7.13
2023-04-16T17:42:57.701Z,7.13
2023-04-16T17:47:51.426Z,5.70
2023-04-16T17:52:48.165Z,6.73
2023-04-16T17:57:41.996Z,6.93
2023-04-16T18:02:36.266Z,6.67
2023-04-16T18:07:28.698Z,9.10
2023-04-16T18:12:32.009Z,7.63
2023-04-16T18:17:44.275Z,7.83
2023-04-16T18:22:39.625Z,9.57
2023-04-16T18:27:32.051Z,8.43
2023-04-16T18:32:24.802Z,8.67
2023-04-16T18:42:28.957Z,10.10
2023-04-16T18:47:23.356Z,8.13
2023-04-16T18:52:15.638Z,10.07
2023-04-16T19:07:36.300Z,10.00
2023-04-16T19:17:49.506Z,7.87
2023-04-16T19:22:43.403Z,8.50
2023-04-16T19:27:39.467Z,5.67
2023-04-16T19:32:31.804Z,7.57
2023-04-16T19:37:23.532Z,8.03
2023-04-16T19:47:28.468Z,7.13
2023-04-16T19:52:22.236Z,6.40
2023-04-16T19:57:18.099Z,6.60
2023-04-16T20:02:10.122Z,6.50
2023-04-16T20:07:02.430Z,6.23
2023-04-16T20:17:02.013Z,6.97
2023-04-16T20:21:54.489Z,9.33
2023-04-16T20:26:46.658Z,5.83
2023-04-16T20:31:38.592Z,6.33
2023-04-16T20:36:33.051Z,6.97
2023-04-16T20:41:27.243Z,4.77
2023-04-16T20:46:26.315Z,7.73
2023-04-16T20:56:27.949Z,4.80
2023-04-16T21:01:27.854Z,5.40
2023-04-16T21:06:23.333Z,5.47
2023-04-16T21:16:22.819Z,4.73
2023-04-16T21:26:34.408Z,4.13
2023-04-16T21:31:26.928Z,5.93
2023-04-16T21:36:19.456Z,5.00
2023-04-16T21:41:18.009Z,6.10
2023-04-16T21:46:10.770Z,5.27
2023-04-16T21:51:06.582Z,5.27
2023-04-16T22:01:06.457Z,4.60
2023-04-16T22:06:03.376Z,4.03
2023-04-16T22:11:01.903Z,4.53
2023-04-16T22:15:56.158Z,5.57
2023-04-16T22:20:59.394Z,6.27
2023-04-16T22:26:02.310Z,4.13
2023-04-16T22:30:54.290Z,5.13
2023-04-16T22:35:46.735Z,5.53
2023-04-16T22:40:38.606Z,4.67
2023-04-16T22:45:30.475Z,5.27
2023-04-16T22:50:23.186Z,4.70
2023-04-16T22:55:15.420Z,6.17
2023-04-16T23:00:13.630Z,4.80
2023-04-16T23:05:05.948Z,4.20
2023-04-16T23:09:57.663Z,4.27
2023-04-16T23:14:49.322Z,4.60
2023-04-16T23:19:41.004Z,4.37
2023-04-16T23:24:32.901Z,6.40
2023-04-16T23:29:24.568Z,5.23
2023-04-16T23:34:16.231Z,4.30
2023-04-16T23:39:09.463Z,4.80
2023-04-16T23:44:01.529Z,5.90
2023-04-16T23:48:55.264Z,5.40
2023-04-16T23:53:48.988Z,6.17
2023-04-16T23:58:40.695Z,5.20
